sensor_id;sensor_type;location;lat;lon;timestamp;temperature;humidity
41310;DHT22;27057;51.438;-0.010;2024-02-23T00:00:09;4.50;99.90
41310;DHT22;27057;51.438;-0.010;2024-02-23T00:02:38;4.40;99.90
41310;DHT22;27057;51.438;-0.010;2024-02-23T00:05:06;4.40;99.90
41310;DHT22;27057;51.438;-0.010;2024-02-23T00:07:33;4.40;99.90
41310;DHT22;27057;51.438;-0.010;2024-02-23T00:10:01;4.40;99.90
41310;DHT22;27057;51.438;-0.010;2024-02-23T00:12:28;4.40;99.90
41310;DHT22;27057;51.438;-0.010;2024-02-23T00:14:55;4.40;99.90
41310;DHT22;27057;51.438;-0.010;2024-02-23T00:17:23;4.40;99.90
41310;DHT22;27057;51.438;-0.010;2024-02-23T00:19:50;4.40;99.90
41310;DHT22;27057;51.438;-0.010;2024-02-23T00:22:20;4.40;99.90
41310;DHT22;27057;51.438;-0.010;2024-02-23T00:24:47;4.30;99.90
41310;DHT22;27057;51.438;-0.010;2024-02-23T00:27:14;4.30;99.90
41310;DHT22;27057;51.438;-0.010;2024-02-23T00:29:42;4.40;99.90
41310;DHT22;27057;51.438;-0.010;2024-02-23T00:32:09;4.30;99.90
41310;DHT22;27057;51.438;-0.010;2024-02-23T00:34:37;4.40;99.90
41310;DHT22;27057;51.438;-0.010;2024-02-23T00:37:04;4.30;99.90
41310;DHT22;27057;51.438;-0.010;2024-02-23T00:39:32;4.30;99.90
41310;DHT22;27057;51.438;-0.010;2024-02-23T00:42:00;4.40;99.90
41310;DHT22;27057;51.438;-0.010;2024-02-23T00:44:27;4.40;99.90
41310;DHT22;27057;51.438;-0.010;2024-02-23T00:46:54;4.40;99.90
41310;DHT22;27057;51.438;-0.010;2024-02-23T00:49:22;4.40;99.90
41310;DHT22;27057;51.438;-0.010;2024-02-23T00:51:49;4.50;99.90
41310;DHT22;27057;51.438;-0.010;2024-02-23T00:54:16;4.50;99.90
41310;DHT22;27057;51.438;-0.010;2024-02-23T00:56:44;4.50;99.90
41310;DHT22;27057;51.438;-0.010;2024-02-23T00:59:18;4.50;99.90
41310;DHT22;27057;51.438;-0.010;2024-02-23T01:01:46;4.50;99.90
41310;DHT22;27057;51.438;-0.010;2024-02-23T01:04:14;4.60;99.90
41310;DHT22;27057;51.438;-0.010;2024-02-23T01:06:41;4.50;99.90
41310;DHT22;27057;51.438;-0.010;2024-02-23T01:09:09;4.50;99.90
41310;DHT22;27057;51.438;-0.010;2024-02-23T01:11:36;4.50;99.90
41310;DHT22;27057;51.438;-0.010;2024-02-23T01:14:04;4.50;99.90
41310;DHT22;27057;51.438;-0.010;2024-02-23T01:16:34;4.50;99.90
41310;DHT22;27057;51.438;-0.010;2024-02-23T01:19:03;4.50;99.90
41310;DHT22;27057;51.438;-0.010;2024-02-23T01:21:30;4.50;99.90
41310;DHT22;27057;51.438;-0.010;2024-02-23T01:23:58;4.50;99.90
41310;DHT22;27057;51.438;-0.010;2024-02-23T01:26:27;4.50;99.90
41310;DHT22;27057;51.438;-0.010;2024-02-23T01:28:55;4.50;99.90
41310;DHT22;27057;51.438;-0.010;2024-02-23T01:31:23;4.50;99.90
41310;DHT22;27057;51.438;-0.010;2024-02-23T01:33:50;4.50;99.90
41310;DHT22;27057;51.438;-0.010;2024-02-23T01:36:18;4.50;99.90
41310;DHT22;27057;51.438;-0.010;2024-02-23T01:38:46;4.50;99.90
41310;DHT22;27057;51.438;-0.010;2024-02-23T01:41:13;4.50;99.90
41310;DHT22;27057;51.438;-0.010;2024-02-23T01:43:41;4.50;99.90
41310;DHT22;27057;51.438;-0.010;2024-02-23T01:46:09;4.50;99.90
41310;DHT22;27057;51.438;-0.010;2024-02-23T01:48:36;4.60;99.90
41310;DHT22;27057;51.438;-0.010;2024-02-23T01:51:04;4.60;99.90
41310;DHT22;27057;51.438;-0.010;2024-02-23T01:53:32;4.60;99.90
41310;DHT22;27057;51.438;-0.010;2024-02-23T01:56:00;4.60;99.90
41310;DHT22;27057;51.438;-0.010;2024-02-23T01:58:29;4.70;99.90
41310;DHT22;27057;51.438;-0.010;2024-02-23T02:01:01;4.80;99.90
41310;DHT22;27057;51.438;-0.010;2024-02-23T02:03:28;4.80;99.90
41310;DHT22;27057;51.438;-0.010;2024-02-23T02:05:57;4.80;99.90
41310;DHT22;27057;51.438;-0.010;2024-02-23T02:08:26;4.80;99.90
41310;DHT22;27057;51.438;-0.010;2024-02-23T02:10:54;4.80;99.90
41310;DHT22;27057;51.438;-0.010;2024-02-23T02:13:22;4.90;99.90
41310;DHT22;27057;51.438;-0.010;2024-02-23T02:15:49;4.90;99.90
41310;DHT22;27057;51.438;-0.010;2024-02-23T02:18:16;4.90;99.90
41310;DHT22;27057;51.438;-0.010;2024-02-23T02:20:52;5.00;99.90
41310;DHT22;27057;51.438;-0.010;2024-02-23T02:23:20;5.00;99.90
41310;DHT22;27057;51.438;-0.010;2024-02-23T02:25:56;5.00;99.90
41310;DHT22;27057;51.438;-0.010;2024-02-23T02:28:25;5.00;99.90
41310;DHT22;27057;51.438;-0.010;2024-02-23T02:30:53;5.00;99.90
41310;DHT22;27057;51.438;-0.010;2024-02-23T02:33:21;5.10;99.90
41310;DHT22;27057;51.438;-0.010;2024-02-23T02:35:49;5.10;99.90
41310;DHT22;27057;51.438;-0.010;2024-02-23T02:38:17;5.10;99.90
41310;DHT22;27057;51.438;-0.010;2024-02-23T02:40:45;5.10;99.90
41310;DHT22;27057;51.438;-0.010;2024-02-23T02:43:12;5.10;99.90
41310;DHT22;27057;51.438;-0.010;2024-02-23T02:45:40;5.10;99.90
41310;DHT22;27057;51.438;-0.010;2024-02-23T02:48:07;5.10;99.90
41310;DHT22;27057;51.438;-0.010;2024-02-23T02:50:35;5.10;99.90
41310;DHT22;27057;51.438;-0.010;2024-02-23T02:53:03;5.10;99.90
41310;DHT22;27057;51.438;-0.010;2024-02-23T02:55:30;5.10;99.90
41310;DHT22;27057;51.438;-0.010;2024-02-23T02:57:57;5.10;99.90
41310;DHT22;27057;51.438;-0.010;2024-02-23T03:00:26;5.20;99.90
41310;DHT22;27057;51.438;-0.010;2024-02-23T03:02:53;5.20;99.90
41310;DHT22;27057;51.438;-0.010;2024-02-23T03:05:21;5.30;99.90
41310;DHT22;27057;51.438;-0.010;2024-02-23T03:07:48;5.40;99.90
41310;DHT22;27057;51.438;-0.010;2024-02-23T03:10:15;5.40;99.90
41310;DHT22;27057;51.438;-0.010;2024-02-23T03:12:43;5.50;99.90
41310;DHT22;27057;51.438;-0.010;2024-02-23T03:15:10;5.40;99.90
41310;DHT22;27057;51.438;-0.010;2024-02-23T03:17:38;5.40;99.90
41310;DHT22;27057;51.438;-0.010;2024-02-23T03:20:06;5.40;99.90
41310;DHT22;27057;51.438;-0.010;2024-02-23T03:22:37;5.30;99.90
41310;DHT22;27057;51.438;-0.010;2024-02-23T03:25:05;5.30;99.90
41310;DHT22;27057;51.438;-0.010;2024-02-23T03:27:36;5.30;99.90
41310;DHT22;27057;51.438;-0.010;2024-02-23T03:30:05;5.20;99.90
41310;DHT22;27057;51.438;-0.010;2024-02-23T03:32:32;5.20;99.90
41310;DHT22;27057;51.438;-0.010;2024-02-23T03:35:04;5.20;99.90
41310;DHT22;27057;51.438;-0.010;2024-02-23T03:37:32;5.10;99.90
41310;DHT22;27057;51.438;-0.010;2024-02-23T03:40:00;5.10;99.90
41310;DHT22;27057;51.438;-0.010;2024-02-23T03:42:28;5.00;99.90
41310;DHT22;27057;51.438;-0.010;2024-02-23T03:44:55;4.90;99.90
41310;DHT22;27057;51.438;-0.010;2024-02-23T03:47:23;5.00;99.90
41310;DHT22;27057;51.438;-0.010;2024-02-23T03:49:50;5.00;99.90
41310;DHT22;27057;51.438;-0.010;2024-02-23T03:52:18;5.00;99.90
41310;DHT22;27057;51.438;-0.010;2024-02-23T03:54:45;4.90;99.90
41310;DHT22;27057;51.438;-0.010;2024-02-23T03:57:12;4.90;99.90
41310;DHT22;27057;51.438;-0.010;2024-02-23T03:59:40;4.90;99.90
41310;DHT22;27057;51.438;-0.010;2024-02-23T04:02:18;4.90;99.90
41310;DHT22;27057;51.438;-0.010;2024-02-23T04:04:45;4.90;99.90
41310;DHT22;27057;51.438;-0.010;2024-02-23T04:07:13;4.90;99.90
41310;DHT22;27057;51.438;-0.010;2024-02-23T04:09:40;4.90;99.90
41310;DHT22;27057;51.438;-0.010;2024-02-23T04:12:08;4.90;99.90
41310;DHT22;27057;51.438;-0.010;2024-02-23T04:14:35;4.90;99.90
41310;DHT22;27057;51.438;-0.010;2024-02-23T04:17:04;4.90;99.90
41310;DHT22;27057;51.438;-0.010;2024-02-23T04:19:31;5.00;99.90
41310;DHT22;27057;51.438;-0.010;2024-02-23T04:21:59;5.00;99.90
41310;DHT22;27057;51.438;-0.010;2024-02-23T04:24:26;5.00;99.90
41310;DHT22;27057;51.438;-0.010;2024-02-23T04:26:54;5.10;99.90
41310;DHT22;27057;51.438;-0.010;2024-02-23T04:29:21;5.10;99.90
41310;DHT22;27057;51.438;-0.010;2024-02-23T04:31:48;5.20;99.90
41310;DHT22;27057;51.438;-0.010;2024-02-23T04:34:16;5.20;99.90
41310;DHT22;27057;51.438;-0.010;2024-02-23T04:36:43;5.20;99.90
41310;DHT22;27057;51.438;-0.010;2024-02-23T04:39:11;5.30;99.90
41310;DHT22;27057;51.438;-0.010;2024-02-23T04:41:38;5.40;99.90
41310;DHT22;27057;51.438;-0.010;2024-02-23T04:44:05;5.40;99.90
41310;DHT22;27057;51.438;-0.010;2024-02-23T04:46:33;5.50;99.90
41310;DHT22;27057;51.438;-0.010;2024-02-23T04:49:02;5.60;99.90
41310;DHT22;27057;51.438;-0.010;2024-02-23T04:51:29;5.60;99.90
41310;DHT22;27057;51.438;-0.010;2024-02-23T04:53:56;5.70;99.90
41310;DHT22;27057;51.438;-0.010;2024-02-23T04:56:24;5.70;99.90
41310;DHT22;27057;51.438;-0.010;2024-02-23T04:58:51;5.80;99.90
41310;DHT22;27057;51.438;-0.010;2024-02-23T05:01:19;5.80;99.90
41310;DHT22;27057;51.438;-0.010;2024-02-23T05:03:46;5.80;99.90
41310;DHT22;27057;51.438;-0.010;2024-02-23T05:06:14;5.90;99.90
41310;DHT22;27057;51.438;-0.010;2024-02-23T05:08:42;5.90;99.90
41310;DHT22;27057;51.438;-0.010;2024-02-23T05:11:09;5.90;99.90
41310;DHT22;27057;51.438;-0.010;2024-02-23T05:13:37;5.90;99.90
41310;DHT22;27057;51.438;-0.010;2024-02-23T05:16:06;5.90;99.90
41310;DHT22;27057;51.438;-0.010;2024-02-23T05:18:34;5.80;99.90
41310;DHT22;27057;51.438;-0.010;2024-02-23T05:21:01;5.80;99.90
41310;DHT22;27057;51.438;-0.010;2024-02-23T05:23:28;5.80;99.90
41310;DHT22;27057;51.438;-0.010;2024-02-23T05:25:56;5.80;99.90
41310;DHT22;27057;51.438;-0.010;2024-02-23T05:28:24;5.80;99.90
41310;DHT22;27057;51.438;-0.010;2024-02-23T05:30:51;5.80;99.90
41310;DHT22;27057;51.438;-0.010;2024-02-23T05:33:18;5.90;99.90
41310;DHT22;27057;51.438;-0.010;2024-02-23T05:35:48;5.90;99.90
41310;DHT22;27057;51.438;-0.010;2024-02-23T05:38:18;5.80;99.90
41310;DHT22;27057;51.438;-0.010;2024-02-23T05:40:46;5.80;99.90
41310;DHT22;27057;51.438;-0.010;2024-02-23T05:43:14;5.80;99.90
41310;DHT22;27057;51.438;-0.010;2024-02-23T05:45:41;5.80;99.90
41310;DHT22;27057;51.438;-0.010;2024-02-23T05:48:09;5.80;99.90
41310;DHT22;27057;51.438;-0.010;2024-02-23T05:50:37;5.70;99.90
41310;DHT22;27057;51.438;-0.010;2024-02-23T05:53:05;5.70;99.90
41310;DHT22;27057;51.438;-0.010;2024-02-23T05:55:32;5.60;99.90
41310;DHT22;27057;51.438;-0.010;2024-02-23T05:57:59;5.60;99.90
41310;DHT22;27057;51.438;-0.010;2024-02-23T06:00:27;5.50;99.90
41310;DHT22;27057;51.438;-0.010;2024-02-23T06:02:54;5.50;99.90
41310;DHT22;27057;51.438;-0.010;2024-02-23T06:05:22;5.40;99.90
41310;DHT22;27057;51.438;-0.010;2024-02-23T06:07:51;5.40;99.90
41310;DHT22;27057;51.438;-0.010;2024-02-23T06:10:19;5.30;99.90
41310;DHT22;27057;51.438;-0.010;2024-02-23T06:12:46;5.30;99.90
41310;DHT22;27057;51.438;-0.010;2024-02-23T06:15:14;5.30;99.90
41310;DHT22;27057;51.438;-0.010;2024-02-23T06:17:41;5.20;99.90
41310;DHT22;27057;51.438;-0.010;2024-02-23T06:20:09;5.20;99.90
41310;DHT22;27057;51.438;-0.010;2024-02-23T06:22:37;5.20;99.90
41310;DHT22;27057;51.438;-0.010;2024-02-23T06:25:05;5.10;99.90
41310;DHT22;27057;51.438;-0.010;2024-02-23T06:27:32;5.10;99.90
41310;DHT22;27057;51.438;-0.010;2024-02-23T06:30:00;5.10;99.90
41310;DHT22;27057;51.438;-0.010;2024-02-23T06:32:27;5.00;99.90
41310;DHT22;27057;51.438;-0.010;2024-02-23T06:34:55;5.00;99.90
41310;DHT22;27057;51.438;-0.010;2024-02-23T06:37:26;5.00;99.90
41310;DHT22;27057;51.438;-0.010;2024-02-23T06:39:54;4.90;99.90
41310;DHT22;27057;51.438;-0.010;2024-02-23T06:42:22;4.90;99.90
41310;DHT22;27057;51.438;-0.010;2024-02-23T06:44:49;4.90;99.90
41310;DHT22;27057;51.438;-0.010;2024-02-23T06:47:17;4.90;99.90
41310;DHT22;27057;51.438;-0.010;2024-02-23T06:49:45;4.90;99.90
41310;DHT22;27057;51.438;-0.010;2024-02-23T06:52:13;4.90;99.90
41310;DHT22;27057;51.438;-0.010;2024-02-23T06:54:41;4.90;99.90
41310;DHT22;27057;51.438;-0.010;2024-02-23T06:57:08;4.80;99.90
41310;DHT22;27057;51.438;-0.010;2024-02-23T06:59:35;4.90;99.90
41310;DHT22;27057;51.438;-0.010;2024-02-23T07:02:03;4.90;99.90
41310;DHT22;27057;51.438;-0.010;2024-02-23T07:04:31;4.90;99.90
41310;DHT22;27057;51.438;-0.010;2024-02-23T07:06:59;4.90;99.90
41310;DHT22;27057;51.438;-0.010;2024-02-23T07:09:33;4.90;99.90
41310;DHT22;27057;51.438;-0.010;2024-02-23T07:12:01;4.90;99.90
41310;DHT22;27057;51.438;-0.010;2024-02-23T07:14:29;4.90;99.90
41310;DHT22;27057;51.438;-0.010;2024-02-23T07:16:56;4.90;99.90
41310;DHT22;27057;51.438;-0.010;2024-02-23T07:19:24;4.90;99.90
41310;DHT22;27057;51.438;-0.010;2024-02-23T07:21:51;4.90;99.90
41310;DHT22;27057;51.438;-0.010;2024-02-23T07:24:19;4.90;99.90
41310;DHT22;27057;51.438;-0.010;2024-02-23T07:26:46;4.90;99.90
41310;DHT22;27057;51.438;-0.010;2024-02-23T07:29:13;4.90;99.90
41310;DHT22;27057;51.438;-0.010;2024-02-23T07:31:45;4.90;99.90
41310;DHT22;27057;51.438;-0.010;2024-02-23T07:34:12;4.90;99.90
41310;DHT22;27057;51.438;-0.010;2024-02-23T07:36:40;4.90;99.90
41310;DHT22;27057;51.438;-0.010;2024-02-23T07:39:07;4.90;99.90
41310;DHT22;27057;51.438;-0.010;2024-02-23T07:41:35;4.90;99.90
41310;DHT22;27057;51.438;-0.010;2024-02-23T07:44:02;4.90;99.90
41310;DHT22;27057;51.438;-0.010;2024-02-23T07:46:30;4.90;99.90
41310;DHT22;27057;51.438;-0.010;2024-02-23T07:48:57;4.90;99.90
41310;DHT22;27057;51.438;-0.010;2024-02-23T07:51:25;4.90;99.90
41310;DHT22;27057;51.438;-0.010;2024-02-23T07:53:52;4.90;99.90
41310;DHT22;27057;51.438;-0.010;2024-02-23T07:56:20;5.00;99.90
41310;DHT22;27057;51.438;-0.010;2024-02-23T07:58:47;5.00;99.90
41310;DHT22;27057;51.438;-0.010;2024-02-23T08:01:15;5.10;99.90
41310;DHT22;27057;51.438;-0.010;2024-02-23T08:03:43;5.10;99.90
41310;DHT22;27057;51.438;-0.010;2024-02-23T08:06:10;5.10;99.90
41310;DHT22;27057;51.438;-0.010;2024-02-23T08:08:40;5.20;99.90
41310;DHT22;27057;51.438;-0.010;2024-02-23T08:11:08;5.20;99.90
41310;DHT22;27057;51.438;-0.010;2024-02-23T08:13:38;5.20;99.90
41310;DHT22;27057;51.438;-0.010;2024-02-23T08:16:06;5.30;99.90
41310;DHT22;27057;51.438;-0.010;2024-02-23T08:18:36;5.30;99.90
41310;DHT22;27057;51.438;-0.010;2024-02-23T08:21:04;5.40;99.90
41310;DHT22;27057;51.438;-0.010;2024-02-23T08:23:33;5.40;99.90
41310;DHT22;27057;51.438;-0.010;2024-02-23T08:26:00;5.50;99.90
41310;DHT22;27057;51.438;-0.010;2024-02-23T08:28:28;5.60;99.90
41310;DHT22;27057;51.438;-0.010;2024-02-23T08:30:56;5.60;99.90
41310;DHT22;27057;51.438;-0.010;2024-02-23T08:33:23;5.60;99.90
41310;DHT22;27057;51.438;-0.010;2024-02-23T08:35:51;5.70;99.90
41310;DHT22;27057;51.438;-0.010;2024-02-23T08:38:19;5.70;99.90
41310;DHT22;27057;51.438;-0.010;2024-02-23T08:40:46;5.70;99.90
41310;DHT22;27057;51.438;-0.010;2024-02-23T08:43:14;5.80;99.90
41310;DHT22;27057;51.438;-0.010;2024-02-23T08:45:41;5.80;99.90
41310;DHT22;27057;51.438;-0.010;2024-02-23T08:48:09;5.90;99.90
41310;DHT22;27057;51.438;-0.010;2024-02-23T08:50:36;5.90;99.90
41310;DHT22;27057;51.438;-0.010;2024-02-23T08:53:06;6.00;99.90
41310;DHT22;27057;51.438;-0.010;2024-02-23T08:55:34;6.00;99.90
41310;DHT22;27057;51.438;-0.010;2024-02-23T08:58:01;6.10;99.90
41310;DHT22;27057;51.438;-0.010;2024-02-23T09:00:29;6.20;99.90
41310;DHT22;27057;51.438;-0.010;2024-02-23T09:02:56;6.20;99.90
41310;DHT22;27057;51.438;-0.010;2024-02-23T09:05:24;6.20;99.90
41310;DHT22;27057;51.438;-0.010;2024-02-23T09:07:52;6.30;99.90
41310;DHT22;27057;51.438;-0.010;2024-02-23T09:10:20;6.40;99.90
41310;DHT22;27057;51.438;-0.010;2024-02-23T09:12:48;6.40;99.90
41310;DHT22;27057;51.438;-0.010;2024-02-23T09:15:18;6.50;99.90
41310;DHT22;27057;51.438;-0.010;2024-02-23T09:17:49;6.50;99.90
41310;DHT22;27057;51.438;-0.010;2024-02-23T09:20:16;6.60;99.90
41310;DHT22;27057;51.438;-0.010;2024-02-23T09:22:45;6.70;99.90
41310;DHT22;27057;51.438;-0.010;2024-02-23T09:25:12;6.70;99.90
41310;DHT22;27057;51.438;-0.010;2024-02-23T09:27:39;6.80;99.90
41310;DHT22;27057;51.438;-0.010;2024-02-23T09:30:14;6.90;99.90
41310;DHT22;27057;51.438;-0.010;2024-02-23T09:32:41;6.90;99.90
41310;DHT22;27057;51.438;-0.010;2024-02-23T09:35:10;7.00;99.90
41310;DHT22;27057;51.438;-0.010;2024-02-23T09:37:37;7.00;99.90
41310;DHT22;27057;51.438;-0.010;2024-02-23T09:40:06;7.00;99.90
41310;DHT22;27057;51.438;-0.010;2024-02-23T09:42:36;7.10;99.90
41310;DHT22;27057;51.438;-0.010;2024-02-23T09:45:05;7.10;99.90
41310;DHT22;27057;51.438;-0.010;2024-02-23T09:47:34;7.10;99.90
41310;DHT22;27057;51.438;-0.010;2024-02-23T09:50:03;7.20;99.90
41310;DHT22;27057;51.438;-0.010;2024-02-23T09:52:33;7.20;99.90
41310;DHT22;27057;51.438;-0.010;2024-02-23T09:55:01;7.30;99.90
41310;DHT22;27057;51.438;-0.010;2024-02-23T09:57:31;7.30;99.90
41310;DHT22;27057;51.438;-0.010;2024-02-23T09:59:58;7.30;99.90
41310;DHT22;27057;51.438;-0.010;2024-02-23T10:02:26;7.40;99.90
41310;DHT22;27057;51.438;-0.010;2024-02-23T10:04:54;7.40;99.90
41310;DHT22;27057;51.438;-0.010;2024-02-23T10:07:25;7.50;99.90
41310;DHT22;27057;51.438;-0.010;2024-02-23T10:09:55;7.60;99.90
41310;DHT22;27057;51.438;-0.010;2024-02-23T10:12:23;7.60;99.90
41310;DHT22;27057;51.438;-0.010;2024-02-23T10:14:51;7.60;99.90
41310;DHT22;27057;51.438;-0.010;2024-02-23T10:17:20;7.70;99.90
41310;DHT22;27057;51.438;-0.010;2024-02-23T10:19:55;7.70;99.90
41310;DHT22;27057;51.438;-0.010;2024-02-23T10:22:26;7.80;99.90
41310;DHT22;27057;51.438;-0.010;2024-02-23T10:24:55;7.80;99.90
41310;DHT22;27057;51.438;-0.010;2024-02-23T10:27:23;7.90;99.90
41310;DHT22;27057;51.438;-0.010;2024-02-23T10:29:50;7.90;99.90
41310;DHT22;27057;51.438;-0.010;2024-02-23T10:32:19;7.90;99.90
41310;DHT22;27057;51.438;-0.010;2024-02-23T10:34:49;8.00;99.90
41310;DHT22;27057;51.438;-0.010;2024-02-23T10:37:18;8.00;99.90
41310;DHT22;27057;51.438;-0.010;2024-02-23T10:39:45;8.00;99.90
41310;DHT22;27057;51.438;-0.010;2024-02-23T10:42:14;8.10;99.90
41310;DHT22;27057;51.438;-0.010;2024-02-23T10:44:44;8.20;99.90
41310;DHT22;27057;51.438;-0.010;2024-02-23T10:47:12;8.20;99.90
41310;DHT22;27057;51.438;-0.010;2024-02-23T10:49:39;8.30;99.90
41310;DHT22;27057;51.438;-0.010;2024-02-23T10:52:09;8.30;99.90
41310;DHT22;27057;51.438;-0.010;2024-02-23T10:54:39;8.30;99.90
41310;DHT22;27057;51.438;-0.010;2024-02-23T10:57:07;8.40;99.90
41310;DHT22;27057;51.438;-0.010;2024-02-23T10:59:35;8.50;99.90
41310;DHT22;27057;51.438;-0.010;2024-02-23T11:02:03;8.50;99.90
41310;DHT22;27057;51.438;-0.010;2024-02-23T11:04:31;8.60;99.90
41310;DHT22;27057;51.438;-0.010;2024-02-23T11:07:01;8.70;99.90
41310;DHT22;27057;51.438;-0.010;2024-02-23T11:09:32;8.80;99.90
41310;DHT22;27057;51.438;-0.010;2024-02-23T11:12:04;8.90;99.90
41310;DHT22;27057;51.438;-0.010;2024-02-23T11:14:35;9.00;99.90
41310;DHT22;27057;51.438;-0.010;2024-02-23T11:17:04;9.10;99.90
41310;DHT22;27057;51.438;-0.010;2024-02-23T11:19:36;9.20;99.90
41310;DHT22;27057;51.438;-0.010;2024-02-23T11:22:09;9.10;99.90
41310;DHT22;27057;51.438;-0.010;2024-02-23T11:24:49;9.10;99.90
41310;DHT22;27057;51.438;-0.010;2024-02-23T11:27:24;9.10;99.90
41310;DHT22;27057;51.438;-0.010;2024-02-23T11:30:03;9.20;99.90
41310;DHT22;27057;51.438;-0.010;2024-02-23T11:32:39;9.30;99.90
41310;DHT22;27057;51.438;-0.010;2024-02-23T11:35:10;9.50;99.90
41310;DHT22;27057;51.438;-0.010;2024-02-23T11:37:48;9.90;99.90
41310;DHT22;27057;51.438;-0.010;2024-02-23T11:40:19;10.10;99.90
41310;DHT22;27057;51.438;-0.010;2024-02-23T11:42:47;10.20;99.90
41310;DHT22;27057;51.438;-0.010;2024-02-23T11:45:15;11.90;99.90
41310;DHT22;27057;51.438;-0.010;2024-02-23T11:47:42;10.60;99.90
41310;DHT22;27057;51.438;-0.010;2024-02-23T11:50:10;10.70;99.90
41310;DHT22;27057;51.438;-0.010;2024-02-23T11:52:38;10.90;99.90
41310;DHT22;27057;51.438;-0.010;2024-02-23T11:55:06;11.10;99.90
41310;DHT22;27057;51.438;-0.010;2024-02-23T11:57:35;10.90;99.90
41310;DHT22;27057;51.438;-0.010;2024-02-23T12:00:14;10.70;99.90
41310;DHT22;27057;51.438;-0.010;2024-02-23T12:02:43;10.60;99.90
41310;DHT22;27057;51.438;-0.010;2024-02-23T12:05:12;10.50;99.90
41310;DHT22;27057;51.438;-0.010;2024-02-23T12:07:41;10.30;99.90
41310;DHT22;27057;51.438;-0.010;2024-02-23T12:10:13;10.30;99.90
41310;DHT22;27057;51.438;-0.010;2024-02-23T12:12:41;10.30;99.90
41310;DHT22;27057;51.438;-0.010;2024-02-23T12:15:08;10.20;99.90
41310;DHT22;27057;51.438;-0.010;2024-02-23T12:17:36;10.10;99.90
41310;DHT22;27057;51.438;-0.010;2024-02-23T12:20:07;10.10;99.90
41310;DHT22;27057;51.438;-0.010;2024-02-23T12:22:35;10.10;99.90
41310;DHT22;27057;51.438;-0.010;2024-02-23T12:25:02;10.20;99.90
41310;DHT22;27057;51.438;-0.010;2024-02-23T12:27:30;10.30;99.90
41310;DHT22;27057;51.438;-0.010;2024-02-23T12:29:57;10.40;99.90
41310;DHT22;27057;51.438;-0.010;2024-02-23T12:32:26;10.50;99.90
41310;DHT22;27057;51.438;-0.010;2024-02-23T12:34:54;10.80;99.90
41310;DHT22;27057;51.438;-0.010;2024-02-23T12:37:21;10.90;99.90
41310;DHT22;27057;51.438;-0.010;2024-02-23T12:39:53;10.80;99.90
41310;DHT22;27057;51.438;-0.010;2024-02-23T12:42:21;10.80;99.90
41310;DHT22;27057;51.438;-0.010;2024-02-23T12:44:48;10.50;99.90
41310;DHT22;27057;51.438;-0.010;2024-02-23T12:47:16;10.40;99.90
41310;DHT22;27057;51.438;-0.010;2024-02-23T12:49:43;10.40;99.90
41310;DHT22;27057;51.438;-0.010;2024-02-23T12:52:12;10.40;99.90
41310;DHT22;27057;51.438;-0.010;2024-02-23T12:54:39;10.40;99.90
41310;DHT22;27057;51.438;-0.010;2024-02-23T12:57:09;10.50;99.90
41310;DHT22;27057;51.438;-0.010;2024-02-23T12:59:36;10.50;99.90
41310;DHT22;27057;51.438;-0.010;2024-02-23T13:02:05;10.50;99.90
41310;DHT22;27057;51.438;-0.010;2024-02-23T13:04:35;10.40;99.90
41310;DHT22;27057;51.438;-0.010;2024-02-23T13:07:02;10.20;99.90
41310;DHT22;27057;51.438;-0.010;2024-02-23T13:09:29;10.20;99.90
41310;DHT22;27057;51.438;-0.010;2024-02-23T13:11:57;10.10;99.90
41310;DHT22;27057;51.438;-0.010;2024-02-23T13:14:24;10.00;99.90
41310;DHT22;27057;51.438;-0.010;2024-02-23T13:16:52;9.80;99.90
41310;DHT22;27057;51.438;-0.010;2024-02-23T13:19:19;9.80;99.90
41310;DHT22;27057;51.438;-0.010;2024-02-23T13:21:46;9.80;99.90
41310;DHT22;27057;51.438;-0.010;2024-02-23T13:24:15;9.80;99.90
41310;DHT22;27057;51.438;-0.010;2024-02-23T13:26:43;9.80;99.90
41310;DHT22;27057;51.438;-0.010;2024-02-23T13:29:10;9.90;99.90
41310;DHT22;27057;51.438;-0.010;2024-02-23T13:31:38;10.00;99.90
41310;DHT22;27057;51.438;-0.010;2024-02-23T13:34:06;10.00;99.90
41310;DHT22;27057;51.438;-0.010;2024-02-23T13:36:34;10.10;99.90
41310;DHT22;27057;51.438;-0.010;2024-02-23T13:39:01;10.10;99.90
41310;DHT22;27057;51.438;-0.010;2024-02-23T13:41:29;10.10;99.90
41310;DHT22;27057;51.438;-0.010;2024-02-23T13:43:56;10.10;99.90
41310;DHT22;27057;51.438;-0.010;2024-02-23T13:46:23;10.10;99.90
41310;DHT22;27057;51.438;-0.010;2024-02-23T13:49:03;10.10;99.90
41310;DHT22;27057;51.438;-0.010;2024-02-23T13:51:32;10.60;99.90
41310;DHT22;27057;51.438;-0.010;2024-02-23T13:53:59;10.90;99.90
41310;DHT22;27057;51.438;-0.010;2024-02-23T13:56:27;11.10;99.90
41310;DHT22;27057;51.438;-0.010;2024-02-23T13:58:55;10.90;99.90
41310;DHT22;27057;51.438;-0.010;2024-02-23T14:01:22;10.60;99.90
41310;DHT22;27057;51.438;-0.010;2024-02-23T14:03:49;10.40;99.90
41310;DHT22;27057;51.438;-0.010;2024-02-23T14:06:17;10.30;99.90
41310;DHT22;27057;51.438;-0.010;2024-02-23T14:08:44;10.70;99.90
41310;DHT22;27057;51.438;-0.010;2024-02-23T14:11:14;11.30;99.90
41310;DHT22;27057;51.438;-0.010;2024-02-23T14:13:42;11.70;99.90
41310;DHT22;27057;51.438;-0.010;2024-02-23T14:16:13;12.00;99.90
41310;DHT22;27057;51.438;-0.010;2024-02-23T14:18:41;12.10;99.90
41310;DHT22;27057;51.438;-0.010;2024-02-23T14:21:11;11.80;99.90
41310;DHT22;27057;51.438;-0.010;2024-02-23T14:23:41;11.60;99.90
41310;DHT22;27057;51.438;-0.010;2024-02-23T14:26:09;11.50;99.90
41310;DHT22;27057;51.438;-0.010;2024-02-23T14:28:37;11.20;99.90
41310;DHT22;27057;51.438;-0.010;2024-02-23T14:31:04;10.90;99.90
41310;DHT22;27057;51.438;-0.010;2024-02-23T14:33:32;10.60;99.90
41310;DHT22;27057;51.438;-0.010;2024-02-23T14:36:00;10.50;99.90
41310;DHT22;27057;51.438;-0.010;2024-02-23T14:38:27;10.20;99.90
41310;DHT22;27057;51.438;-0.010;2024-02-23T14:40:55;10.00;99.90
41310;DHT22;27057;51.438;-0.010;2024-02-23T14:43:22;9.90;99.90
41310;DHT22;27057;51.438;-0.010;2024-02-23T14:45:49;9.70;99.90
41310;DHT22;27057;51.438;-0.010;2024-02-23T14:48:19;9.60;99.90
41310;DHT22;27057;51.438;-0.010;2024-02-23T14:50:47;9.50;99.90
41310;DHT22;27057;51.438;-0.010;2024-02-23T14:53:15;9.30;99.90
41310;DHT22;27057;51.438;-0.010;2024-02-23T14:55:43;9.20;99.90
41310;DHT22;27057;51.438;-0.010;2024-02-23T14:58:10;9.10;99.90
41310;DHT22;27057;51.438;-0.010;2024-02-23T15:00:38;8.80;99.90
41310;DHT22;27057;51.438;-0.010;2024-02-23T15:03:05;8.40;99.90
41310;DHT22;27057;51.438;-0.010;2024-02-23T15:05:33;7.80;99.90
41310;DHT22;27057;51.438;-0.010;2024-02-23T15:08:01;7.50;99.90
41310;DHT22;27057;51.438;-0.010;2024-02-23T15:10:28;7.30;99.90
41310;DHT22;27057;51.438;-0.010;2024-02-23T15:12:56;7.10;99.90
41310;DHT22;27057;51.438;-0.010;2024-02-23T15:15:23;7.00;99.90
41310;DHT22;27057;51.438;-0.010;2024-02-23T15:17:51;6.80;99.90
41310;DHT22;27057;51.438;-0.010;2024-02-23T15:20:19;6.70;99.90
41310;DHT22;27057;51.438;-0.010;2024-02-23T15:22:47;6.70;99.90
41310;DHT22;27057;51.438;-0.010;2024-02-23T15:25:16;6.60;99.90
41310;DHT22;27057;51.438;-0.010;2024-02-23T15:27:44;6.50;99.90
41310;DHT22;27057;51.438;-0.010;2024-02-23T15:30:11;6.50;99.90
41310;DHT22;27057;51.438;-0.010;2024-02-23T15:32:39;6.50;99.90